Overview Statistics Trail Chart Weather Telemetry Raw packets
 

This is the latest recevied weather packets stored in our database for station/object OK1FET-5. If no packets are shown the sender has not sent any weather packets the latest 10 day(s).

<< 10 11 12 13 14 15 16 >>
Time Temp. Humidity Pressure Rain* Wind** Luminosity Snow
1788420459 23.89° C 58% 1022.6 hPa - - - -
1788419863 23.33° C 58% 1022.7 hPa - - - -
1788419268 22.78° C 61% 1022.7 hPa - - - -
1788418672 21.67° C 63% 1022.6 hPa - - - -
1788418076 21.11° C 64% 1022.6 hPa - - - -
1788417480 20.56° C 66% 1022.6 hPa - - - -
1788416885 19.44° C 68% 1022.6 hPa - - - -
1788416289 18.89° C 69% 1022.5 hPa - - - -
1788415693 18.33° C 71% 1022.4 hPa - - - -
1788415097 17.22° C 74% 1022.4 hPa - - - -
1788414501 16.11° C 76% 1022.4 hPa - - - -
1788413906 13.89° C 80% 1022.4 hPa - - - -
1788413310 13.89° C 80% 1022.4 hPa - - - -
1788412714 13.89° C 79% 1022.4 hPa - - - -
1788412118 13.89° C 79% 1022.3 hPa - - - -
1788411523 13.89° C 79% 1022.1 hPa - - - -
1788410927 13.89° C 79% 1022.3 hPa - - - -
1788410331 13.89° C 79% 1022.3 hPa - - - -
1788409735 13.89° C 79% 1022.2 hPa - - - -
1788409140 13.89° C 79% 1022.3 hPa - - - -
1788408544 13.89° C 79% 1022.1 hPa - - - -
1788407948 13.33° C 80% 1022.1 hPa - - - -
1788407353 13.33° C 82% 1022 hPa - - - -
1788406757 13.89° C 80% 1022 hPa - - - -
1788406161 13.89° C 80% 1022 hPa - - - -

* Rain since midnight (hover to see other rain measurements)
** Current wind speed in m/s (hover to see current wind gust speed)